createdAt,value
2019-06-20T00:00:10.822Z,0
2019-06-20T00:01:12.189Z,0
2019-06-20T00:02:13.559Z,0
2019-06-20T00:03:14.933Z,0
2019-06-20T00:04:16.304Z,0
2019-06-20T00:05:17.670Z,0
2019-06-20T00:06:19.037Z,0
2019-06-20T00:07:20.407Z,0
2019-06-20T00:08:21.777Z,0
2019-06-20T00:09:23.147Z,0
2019-06-20T00:10:24.521Z,0
2019-06-20T00:11:25.893Z,0
2019-06-20T00:12:27.262Z,0
2019-06-20T00:13:28.629Z,0
2019-06-20T00:14:30.000Z,0
2019-06-20T00:15:31.375Z,0
2019-06-20T00:16:32.753Z,0
2019-06-20T00:17:34.124Z,0
2019-06-20T00:18:35.493Z,0
2019-06-20T00:19:36.862Z,0
2019-06-20T00:20:38.231Z,0
2019-06-20T00:21:39.601Z,0
2019-06-20T00:22:40.974Z,0
2019-06-20T00:23:42.345Z,0
2019-06-20T00:24:43.715Z,0
2019-06-20T00:25:45.096Z,0
2019-06-20T00:26:46.465Z,0
2019-06-20T00:27:47.832Z,0
2019-06-20T00:28:49.199Z,0
2019-06-20T00:29:50.571Z,0
2019-06-20T00:30:51.943Z,0
2019-06-20T00:31:53.315Z,0
2019-06-20T00:32:54.685Z,0
2019-06-20T00:33:56.053Z,0
2019-06-20T00:34:57.422Z,0
2019-06-20T00:35:58.796Z,0
2019-06-20T00:37:00.205Z,0
2019-06-20T00:38:01.554Z,0
2019-06-20T00:39:02.930Z,0
2019-06-20T00:40:04.303Z,0
2019-06-20T00:41:05.666Z,0
2019-06-20T00:42:07.031Z,0
2019-06-20T00:43:17.284Z,0
2019-06-20T00:44:09.740Z,0
2019-06-20T00:45:11.111Z,0
2019-06-20T00:46:12.488Z,0
2019-06-20T00:47:13.906Z,0
2019-06-20T00:48:15.219Z,0
2019-06-20T00:49:16.590Z,0
2019-06-20T00:50:17.962Z,0
2019-06-20T00:51:19.357Z,0
2019-06-20T00:52:20.731Z,0
2019-06-20T00:53:22.103Z,0
2019-06-20T00:54:23.470Z,0
2019-06-20T00:55:24.843Z,0
2019-06-20T00:56:26.214Z,0
2019-06-20T00:57:27.587Z,0
2019-06-20T00:58:28.958Z,0
2019-06-20T00:59:30.324Z,0
2019-06-20T01:00:31.696Z,0
2019-06-20T01:01:33.071Z,0
2019-06-20T01:02:34.441Z,0
2019-06-20T01:03:35.808Z,0
2019-06-20T01:04:37.275Z,0
2019-06-20T01:05:38.649Z,0
2019-06-20T01:06:40.018Z,0
2019-06-20T01:07:41.389Z,0
2019-06-20T01:08:42.761Z,0
2019-06-20T01:09:44.133Z,0
2019-06-20T01:10:45.501Z,0
2019-06-20T01:11:46.870Z,0
2019-06-20T01:12:48.260Z,0
2019-06-20T01:13:52.133Z,0
2019-06-20T01:14:50.967Z,0
2019-06-20T01:15:52.339Z,0
2019-06-20T01:16:53.706Z,0
2019-06-20T01:17:55.077Z,0
2019-06-20T01:18:56.448Z,0
2019-06-20T01:19:58.344Z,0
2019-06-20T01:20:59.150Z,0
2019-06-20T01:22:00.525Z,0
2019-06-20T01:23:01.898Z,0
2019-06-20T01:24:03.285Z,0
2019-06-20T01:25:04.638Z,0
2019-06-20T01:26:06.008Z,0
2019-06-20T01:27:07.381Z,0
2019-06-20T01:28:08.751Z,0
2019-06-20T01:29:10.122Z,0
2019-06-20T01:30:11.494Z,0
2019-06-20T01:31:12.915Z,0
2019-06-20T01:32:14.231Z,0
2019-06-20T01:33:15.601Z,0
2019-06-20T01:34:16.973Z,0
2019-06-20T01:35:18.342Z,0
2019-06-20T01:36:19.716Z,0
2019-06-20T01:37:21.105Z,0
2019-06-20T01:38:22.458Z,0
2019-06-20T01:39:23.829Z,0
2019-06-20T01:40:25.208Z,0
2019-06-20T01:41:26.573Z,0
2019-06-20T01:42:27.944Z,0
2019-06-20T01:43:29.314Z,0
2019-06-20T01:44:30.684Z,0
2019-06-20T01:45:32.054Z,0
2019-06-20T01:46:33.420Z,0
2019-06-20T01:47:34.796Z,0
2019-06-20T01:48:36.165Z,0
2019-06-20T01:49:37.604Z,0
2019-06-20T01:50:38.977Z,0
2019-06-20T01:51:40.351Z,0
2019-06-20T01:52:41.721Z,0
2019-06-20T01:53:43.092Z,0
2019-06-20T01:54:44.466Z,0
2019-06-20T01:55:45.832Z,0
2019-06-20T01:56:47.210Z,0
2019-06-20T01:57:48.596Z,0
2019-06-20T01:58:49.951Z,0
2019-06-20T01:59:51.331Z,0
2019-06-20T02:00:52.703Z,0
2019-06-20T02:01:54.068Z,0
2019-06-20T02:02:55.442Z,0
2019-06-20T02:03:56.811Z,0
2019-06-20T02:04:58.187Z,0
2019-06-20T02:05:59.560Z,0
2019-06-20T02:07:00.924Z,0
2019-06-20T02:08:02.299Z,0
2019-06-20T02:09:03.678Z,0
2019-06-20T02:10:05.041Z,0
2019-06-20T02:11:06.410Z,0
2019-06-20T02:12:07.788Z,0
2019-06-20T02:13:09.161Z,0
2019-06-20T02:14:10.534Z,0
2019-06-20T02:15:11.903Z,0
2019-06-20T02:16:13.277Z,0
2019-06-20T02:17:14.643Z,0
2019-06-20T02:18:16.017Z,0
2019-06-20T02:19:17.397Z,0
2019-06-20T02:20:18.761Z,0
2019-06-20T02:21:20.153Z,0
2019-06-20T02:22:21.499Z,0
2019-06-20T02:23:22.868Z,0
2019-06-20T02:24:24.427Z,0
2019-06-20T02:25:25.574Z,0
2019-06-20T02:26:26.943Z,0
2019-06-20T02:27:28.317Z,0
2019-06-20T02:28:29.689Z,0
2019-06-20T02:29:31.056Z,0
2019-06-20T02:30:32.433Z,0
2019-06-20T02:31:33.800Z,0
2019-06-20T02:32:35.173Z,4
2019-06-20T02:33:36.548Z,4
2019-06-20T02:34:37.912Z,4
2019-06-20T02:35:39.284Z,4
2019-06-20T02:36:40.658Z,4
2019-06-20T02:37:42.025Z,4
2019-06-20T02:38:43.396Z,4
2019-06-20T02:39:44.766Z,8
2019-06-20T02:40:46.138Z,4
2019-06-20T02:41:47.507Z,8
2019-06-20T02:42:48.878Z,8
2019-06-20T02:43:50.247Z,12
2019-06-20T02:44:51.622Z,12
2019-06-20T02:45:52.997Z,16
2019-06-20T02:46:54.364Z,16
2019-06-20T02:47:55.747Z,16
2019-06-20T02:48:57.116Z,16
2019-06-20T02:49:58.493Z,20
2019-06-20T02:50:59.857Z,20
2019-06-20T02:52:01.231Z,20
2019-06-20T02:53:02.607Z,24
2019-06-20T02:54:03.975Z,28
2019-06-20T02:55:05.351Z,28
2019-06-20T02:56:06.720Z,32
2019-06-20T02:57:08.092Z,32
2019-06-20T02:58:09.466Z,40
2019-06-20T02:59:10.836Z,40
2019-06-20T03:00:13.096Z,44
2019-06-20T03:01:14.427Z,48
2019-06-20T03:02:15.799Z,52
2019-06-20T03:03:17.172Z,52
2019-06-20T03:04:18.545Z,56
2019-06-20T03:05:19.923Z,60
2019-06-20T03:06:21.295Z,64
2019-06-20T03:07:22.666Z,72
2019-06-20T03:08:24.039Z,76
2019-06-20T03:09:25.408Z,88
2019-06-20T03:10:26.781Z,96
2019-06-20T03:11:28.155Z,104
2019-06-20T03:12:29.528Z,116
2019-06-20T03:13:30.903Z,128
2019-06-20T03:14:44.510Z,136
2019-06-20T03:15:33.611Z,148
2019-06-20T03:16:34.985Z,152
2019-06-20T03:17:36.358Z,152
2019-06-20T03:18:37.735Z,164
2019-06-20T03:19:39.101Z,172
2019-06-20T03:20:40.475Z,180
2019-06-20T03:21:41.855Z,196
2019-06-20T03:22:43.232Z,216
2019-06-20T03:23:44.607Z,232
2019-06-20T03:24:45.984Z,244
2019-06-20T03:25:47.358Z,256
2019-06-20T03:26:48.738Z,276
2019-06-20T03:27:50.106Z,296
2019-06-20T03:28:51.479Z,296
2019-06-20T03:29:52.853Z,276
2019-06-20T03:30:54.240Z,292
2019-06-20T03:31:55.608Z,312
2019-06-20T03:32:56.978Z,340
2019-06-20T03:33:58.354Z,372
2019-06-20T03:34:59.740Z,388
2019-06-20T03:36:01.114Z,400
2019-06-20T03:37:02.486Z,420
2019-06-20T03:38:03.863Z,408
2019-06-20T03:39:05.237Z,412
2019-06-20T03:40:06.615Z,452
2019-06-20T03:41:07.984Z,488
2019-06-20T03:42:09.359Z,508
2019-06-20T03:43:10.736Z,532
2019-06-20T03:44:12.112Z,544
2019-06-20T03:45:13.516Z,560
2019-06-20T03:46:14.926Z,572
2019-06-20T03:47:16.236Z,596
2019-06-20T03:48:17.612Z,600
2019-06-20T03:49:18.985Z,584
2019-06-20T03:50:20.357Z,592
2019-06-20T03:51:21.731Z,616
2019-06-20T03:52:23.107Z,624
2019-06-20T03:53:24.483Z,636
2019-06-20T03:54:25.855Z,656
2019-06-20T03:55:27.235Z,688
2019-06-20T03:56:28.607Z,652
2019-06-20T03:57:29.981Z,652
2019-06-20T03:58:31.355Z,660
2019-06-20T03:59:32.731Z,692
2019-06-20T04:00:34.106Z,728
2019-06-20T04:01:35.477Z,732
2019-06-20T04:02:36.865Z,704
2019-06-20T04:03:38.237Z,680
2019-06-20T04:04:39.608Z,700
2019-06-20T04:05:40.984Z,784
2019-06-20T04:06:42.355Z,828
2019-06-20T04:07:43.736Z,832
2019-06-20T04:08:45.107Z,820
2019-06-20T04:09:46.481Z,856
2019-06-20T04:10:47.856Z,916
2019-06-20T04:11:49.239Z,916
2019-06-20T04:12:50.612Z,988
2019-06-20T04:13:51.987Z,964
2019-06-20T04:14:53.356Z,964
2019-06-20T04:15:54.745Z,1052
2019-06-20T04:16:56.112Z,1140
2019-06-20T04:17:57.485Z,1196
2019-06-20T04:18:58.864Z,1296
2019-06-20T04:20:00.239Z,1412
2019-06-20T04:21:01.616Z,1452
2019-06-20T04:22:03.049Z,1448
2019-06-20T04:23:04.331Z,1556
2019-06-20T04:24:05.706Z,1588
2019-06-20T04:25:07.082Z,1632
2019-06-20T04:26:08.465Z,1784
2019-06-20T04:27:09.845Z,2032
2019-06-20T04:28:11.213Z,2140
2019-06-20T04:29:12.611Z,2160
2019-06-20T04:30:13.990Z,2080
2019-06-20T04:31:15.363Z,2064
2019-06-20T04:32:16.732Z,2028
2019-06-20T04:33:18.105Z,2016
2019-06-20T04:34:19.487Z,2272
2019-06-20T04:35:20.863Z,2156
2019-06-20T04:36:22.239Z,1844
2019-06-20T04:37:23.615Z,1668
2019-06-20T04:38:24.993Z,1712
2019-06-20T04:39:26.364Z,1756
2019-06-20T04:40:27.742Z,1836
2019-06-20T04:41:29.114Z,1876
2019-06-20T04:42:30.497Z,1912
2019-06-20T04:43:31.872Z,1988
2019-06-20T04:44:33.247Z,2096
2019-06-20T04:45:35.639Z,2244
2019-06-20T04:46:35.964Z,2428
2019-06-20T04:47:37.345Z,2580
2019-06-20T04:48:38.751Z,2744
2019-06-20T04:49:40.056Z,2924
2019-06-20T04:50:41.435Z,3028
2019-06-20T04:51:42.816Z,3108
2019-06-20T04:52:44.188Z,3208
2019-06-20T04:53:45.563Z,3192
2019-06-20T04:54:46.941Z,3260
2019-06-20T04:55:48.317Z,3388
2019-06-20T04:56:49.733Z,3548
2019-06-20T04:57:51.078Z,3768
2019-06-20T04:58:52.456Z,4036
2019-06-20T04:59:53.835Z,4396
2019-06-20T05:00:55.210Z,4616
2019-06-20T05:01:56.584Z,5328
2019-06-20T05:02:57.963Z,5284
2019-06-20T05:03:59.337Z,5568
2019-06-20T05:05:00.716Z,5640
2019-06-20T05:06:02.099Z,5692
2019-06-20T05:07:03.468Z,5848
2019-06-20T05:08:04.835Z,6036
2019-06-20T05:09:06.218Z,6160
2019-06-20T05:10:07.594Z,6340
2019-06-20T05:11:08.975Z,6648
2019-06-20T05:12:10.350Z,7044
2019-06-20T05:13:11.725Z,7172
2019-06-20T05:14:13.103Z,7220
2019-06-20T05:15:14.479Z,7484
2019-06-20T05:16:15.860Z,7668
2019-06-20T05:17:17.243Z,7608
2019-06-20T05:18:18.614Z,7476
2019-06-20T05:19:19.993Z,7380
2019-06-20T05:20:21.370Z,7252
2019-06-20T05:21:22.746Z,7028
2019-06-20T05:22:24.125Z,6516
2019-06-20T05:23:25.503Z,7244
2019-06-20T05:24:26.878Z,8104
2019-06-20T05:25:28.261Z,8500
2019-06-20T05:26:29.641Z,8596
2019-06-20T05:27:31.020Z,9164
2019-06-20T05:28:32.399Z,8244
2019-06-20T05:29:33.784Z,7732
2019-06-20T05:30:35.155Z,8028
2019-06-20T05:31:36.534Z,7184
2019-06-20T05:32:37.916Z,7388
2019-06-20T05:33:39.295Z,7052
2019-06-20T05:34:40.677Z,6864
2019-06-20T05:35:42.051Z,7032
2019-06-20T05:36:43.432Z,6980
2019-06-20T05:37:44.817Z,6692
2019-06-20T05:38:46.197Z,6536
2019-06-20T05:39:47.584Z,6732
2019-06-20T05:40:48.961Z,7008
2019-06-20T05:41:50.403Z,7508
2019-06-20T05:42:51.731Z,7932
2019-06-20T05:43:53.020Z,8376
2019-06-20T05:44:54.409Z,8972
2019-06-20T05:46:08.427Z,9716
2019-06-20T05:47:11.370Z,11084
2019-06-20T05:47:58.461Z,11332
2019-06-20T05:48:59.840Z,11816
2019-06-20T05:50:01.260Z,11240
2019-06-20T05:51:02.586Z,11104
2019-06-20T05:52:03.947Z,10796
2019-06-20T05:53:05.338Z,10736
2019-06-20T05:54:06.715Z,10788
2019-06-20T05:55:08.101Z,10812
2019-06-20T05:56:09.475Z,10884
2019-06-20T05:57:10.861Z,10056
2019-06-20T05:58:12.248Z,10008
2019-06-20T05:59:13.621Z,10376
2019-06-20T06:00:15.006Z,10364
2019-06-20T06:01:16.383Z,9516
2019-06-20T06:02:17.753Z,9572
2019-06-20T06:03:19.130Z,8176
2019-06-20T06:04:20.514Z,8164
2019-06-20T06:05:21.889Z,7916
2019-06-20T06:06:23.266Z,7652
2019-06-20T06:07:24.645Z,7732
2019-06-20T06:08:26.025Z,7944
2019-06-20T06:09:27.402Z,8012
2019-06-20T06:10:28.783Z,8016
2019-06-20T06:11:30.158Z,7956
2019-06-20T06:12:31.537Z,7212
2019-06-20T06:13:32.911Z,6960
2019-06-20T06:14:34.290Z,7020
2019-06-20T06:15:35.676Z,7288
2019-06-20T06:16:37.046Z,7688
2019-06-20T06:17:38.682Z,8108
2019-06-20T06:18:39.768Z,8488
2019-06-20T06:19:41.146Z,8740
2019-06-20T06:20:44.821Z,8212
2019-06-20T06:21:43.867Z,7588
2019-06-20T06:22:45.254Z,6848
2019-06-20T06:23:46.637Z,5844
2019-06-20T06:24:48.013Z,4776
2019-06-20T06:25:49.394Z,4312
2019-06-20T06:26:50.768Z,4536
2019-06-20T06:27:52.145Z,5068
2019-06-20T06:28:53.521Z,5396
2019-06-20T06:29:54.904Z,5188
2019-06-20T06:30:56.283Z,5032
2019-06-20T06:31:57.658Z,5308
2019-06-20T06:32:59.043Z,5520
2019-06-20T06:34:00.414Z,5504
2019-06-20T06:35:01.818Z,5364
2019-06-20T06:36:03.171Z,5348
2019-06-20T06:37:04.551Z,5680
2019-06-20T06:38:05.932Z,6200
2019-06-20T06:39:07.311Z,6320
2019-06-20T06:40:08.693Z,6140
2019-06-20T06:41:10.070Z,6016
2019-06-20T06:42:11.450Z,6236
2019-06-20T06:43:12.828Z,6368
2019-06-20T06:44:14.206Z,6144
2019-06-20T06:45:15.665Z,6100
2019-06-20T06:46:16.929Z,6468
2019-06-20T06:47:18.307Z,6900
2019-06-20T06:48:19.685Z,7068
2019-06-20T06:49:21.062Z,7080
2019-06-20T06:50:22.440Z,7072
2019-06-20T06:51:23.818Z,7252
2019-06-20T06:52:25.197Z,7664
2019-06-20T06:53:26.574Z,8344
2019-06-20T06:54:27.953Z,9172
2019-06-20T06:55:29.333Z,9964
2019-06-20T06:56:30.710Z,10352
2019-06-20T06:57:32.091Z,10012
2019-06-20T06:58:33.470Z,9056
2019-06-20T06:59:34.847Z,8528
2019-06-20T07:00:36.222Z,8604
2019-06-20T07:01:37.597Z,8964
2019-06-20T07:02:38.975Z,9744
2019-06-20T07:03:40.360Z,10528
2019-06-20T07:04:41.734Z,10860
2019-06-20T07:05:43.115Z,10264
2019-06-20T07:06:44.497Z,9608
2019-06-20T07:07:45.901Z,9748
2019-06-20T07:08:47.252Z,9624
2019-06-20T07:09:48.626Z,9484
2019-06-20T07:10:50.002Z,9824
2019-06-20T07:11:51.385Z,10696
2019-06-20T07:12:52.767Z,11720
2019-06-20T07:13:54.216Z,12008
2019-06-20T07:14:55.590Z,11780
2019-06-20T07:15:56.971Z,11840
2019-06-20T07:17:00.447Z,11744
2019-06-20T07:17:59.693Z,11540
2019-06-20T07:19:01.095Z,11420
2019-06-20T07:20:02.490Z,11216
2019-06-20T07:21:03.856Z,11124
2019-06-20T07:22:05.238Z,11200
2019-06-20T07:23:06.620Z,11432
2019-06-20T07:24:08.000Z,12968
2019-06-20T07:25:09.368Z,14332
2019-06-20T07:26:10.755Z,19200
2019-06-20T07:27:12.126Z,35040
2019-06-20T07:28:13.529Z,24416
2019-06-20T07:29:14.917Z,31712
2019-06-20T07:30:16.293Z,40672
2019-06-20T07:31:17.672Z,22848
2019-06-20T07:32:19.095Z,36064
2019-06-20T07:33:20.474Z,36896
2019-06-20T07:34:21.852Z,28288
2019-06-20T07:35:23.233Z,26048
2019-06-20T07:36:24.625Z,39616
2019-06-20T07:37:26.001Z,32032
2019-06-20T07:38:27.380Z,32064
2019-06-20T07:39:28.843Z,25216
2019-06-20T07:40:30.231Z,35136
2019-06-20T07:41:31.620Z,40416
2019-06-20T07:42:33.005Z,46368
2019-06-20T07:43:34.392Z,45312
2019-06-20T07:44:35.771Z,30272
2019-06-20T07:45:37.152Z,32288
2019-06-20T07:46:38.636Z,34336
2019-06-20T07:47:39.892Z,26816
2019-06-20T07:48:41.276Z,26432
2019-06-20T07:49:42.659Z,22048
2019-06-20T07:50:44.043Z,24000
2019-06-20T07:51:45.423Z,22784
2019-06-20T07:53:00.837Z,23040
2019-06-20T07:53:48.153Z,22528
2019-06-20T07:54:49.535Z,25344
2019-06-20T07:55:50.921Z,30592
2019-06-20T07:56:52.304Z,23232
2019-06-20T07:57:53.687Z,23008
2019-06-20T07:58:55.067Z,20256
2019-06-20T07:59:56.449Z,28288
2019-06-20T08:00:57.834Z,22944
2019-06-20T08:01:59.291Z,29792
2019-06-20T08:03:00.569Z,35168
2019-06-20T08:04:01.972Z,31040
2019-06-20T08:05:03.337Z,34528
2019-06-20T08:06:04.725Z,25728
2019-06-20T08:07:06.101Z,22112
2019-06-20T08:08:07.486Z,19584
2019-06-20T08:09:08.868Z,18976
2019-06-20T08:10:10.256Z,16800
2019-06-20T08:11:11.702Z,17344
2019-06-20T08:12:13.027Z,18208
2019-06-20T08:13:14.510Z,19808
2019-06-20T08:14:15.891Z,22368
2019-06-20T08:15:17.275Z,21472
2019-06-20T08:16:18.657Z,24096
2019-06-20T08:17:34.423Z,27616
2019-06-20T08:18:21.386Z,24000
2019-06-20T08:19:22.768Z,20864
2019-06-20T08:20:24.149Z,21536
2019-06-20T08:21:25.530Z,25856
2019-06-20T08:22:26.915Z,26304
2019-06-20T08:23:28.301Z,25504
2019-06-20T08:24:29.719Z,24160
2019-06-20T08:25:31.103Z,23616
2019-06-20T08:26:32.497Z,23584
2019-06-20T08:27:33.881Z,22272
2019-06-20T08:28:35.252Z,22144
2019-06-20T08:29:36.636Z,21248
2019-06-20T08:30:38.027Z,21568
2019-06-20T08:31:39.407Z,21664
2019-06-20T08:32:40.802Z,22752
2019-06-20T08:33:42.182Z,23520
2019-06-20T08:34:43.574Z,27744
2019-06-20T08:35:44.936Z,25536
2019-06-20T08:36:46.315Z,25056
2019-06-20T08:37:47.697Z,31168
2019-06-20T08:38:49.087Z,33536
2019-06-20T08:39:50.473Z,34656
2019-06-20T08:40:51.854Z,30400
2019-06-20T08:41:53.235Z,35808
2019-06-20T08:42:55.335Z,33248
2019-06-20T08:43:56.760Z,37280
2019-06-20T08:44:57.894Z,36768
2019-06-20T08:45:59.498Z,24608
2019-06-20T08:47:01.138Z,21184
2019-06-20T08:48:02.433Z,21920
2019-06-20T08:49:03.532Z,22368
2019-06-20T08:50:04.063Z,21408
2019-06-20T08:51:06.537Z,19904
2019-06-20T08:52:06.792Z,17856
2019-06-20T08:53:08.181Z,17856
2019-06-20T08:54:09.560Z,21120
2019-06-20T08:55:10.954Z,20768
2019-06-20T08:56:12.332Z,20608
2019-06-20T08:57:13.712Z,22144
2019-06-20T08:58:15.092Z,23360
2019-06-20T08:59:24.208Z,27264
2019-06-20T09:00:17.829Z,28768
2019-06-20T09:01:19.220Z,25728
2019-06-20T09:02:20.596Z,29184
2019-06-20T09:03:21.977Z,25344
2019-06-20T09:04:23.359Z,29184
2019-06-20T09:05:24.744Z,40704
2019-06-20T09:06:26.132Z,58432
2019-06-20T09:07:27.519Z,81248
2019-06-20T09:08:28.911Z,57408
2019-06-20T09:09:30.302Z,88064
2019-06-20T09:10:31.682Z,24640
2019-06-20T09:11:33.071Z,28544
2019-06-20T09:12:34.448Z,23776
2019-06-20T09:13:35.832Z,43168
2019-06-20T09:14:37.226Z,32096
2019-06-20T09:15:38.620Z,54624
2019-06-20T09:16:39.986Z,29152
2019-06-20T09:17:41.374Z,37280
2019-06-20T09:18:42.760Z,58784
2019-06-20T09:19:44.144Z,28448
2019-06-20T09:20:45.527Z,24704
2019-06-20T09:21:46.914Z,28416
2019-06-20T09:22:48.303Z,19840
2019-06-20T09:23:49.685Z,27392
2019-06-20T09:24:52.025Z,84288
2019-06-20T09:25:52.420Z,17664
2019-06-20T09:26:53.910Z,27552
2019-06-20T09:27:55.929Z,88032
2019-06-20T09:28:57.155Z,89184
2019-06-20T09:29:58.506Z,88704
2019-06-20T09:30:59.282Z,89568
2019-06-20T09:32:00.592Z,92800
2019-06-20T09:33:01.975Z,86368
2019-06-20T09:34:05.340Z,31328
2019-06-20T09:35:04.711Z,81440
2019-06-20T09:36:06.100Z,85248
2019-06-20T09:37:07.488Z,92448
2019-06-20T09:38:08.877Z,90208
2019-06-20T09:39:10.259Z,52672
2019-06-20T09:40:11.647Z,91648
2019-06-20T09:41:13.032Z,64992
2019-06-20T09:42:14.459Z,36608
2019-06-20T09:43:27.223Z,23904
2019-06-20T09:44:17.161Z,33536
2019-06-20T09:45:18.550Z,50752
2019-06-20T09:46:20.004Z,102016
2019-06-20T09:47:21.286Z,73472
2019-06-20T09:48:22.677Z,23136
2019-06-20T09:49:24.068Z,12436
2019-06-20T09:50:25.452Z,11140
2019-06-20T09:51:26.842Z,12396
2019-06-20T09:52:28.231Z,16416
2019-06-20T09:53:29.623Z,59456
2019-06-20T09:54:31.010Z,25600
2019-06-20T09:55:32.409Z,22912
2019-06-20T09:56:33.786Z,21504
2019-06-20T09:57:35.176Z,23968
2019-06-20T09:58:36.567Z,27904
2019-06-20T09:59:37.954Z,25024
2019-06-20T10:00:39.341Z,22144
2019-06-20T10:01:40.756Z,22432
2019-06-20T10:02:42.113Z,20352
2019-06-20T10:03:43.493Z,16128
2019-06-20T10:04:46.069Z,15680
2019-06-20T10:05:47.306Z,14800
2019-06-20T10:06:48.615Z,16320
2019-06-20T10:07:50.171Z,16416
2019-06-20T10:08:50.273Z,15664
2019-06-20T10:09:52.057Z,16640
2019-06-20T10:10:54.124Z,16608
2019-06-20T10:11:54.359Z,15116
2019-06-20T10:12:55.898Z,13488
2019-06-20T10:13:58.460Z,11240
2019-06-20T10:14:58.453Z,8980
2019-06-20T10:15:59.851Z,9772
2019-06-20T10:17:01.226Z,11508
2019-06-20T10:18:02.612Z,13920
2019-06-20T10:19:03.997Z,18304
2019-06-20T10:20:05.381Z,29184
2019-06-20T10:21:06.770Z,33280
2019-06-20T10:22:08.146Z,81120
2019-06-20T10:23:09.527Z,69504
2019-06-20T10:24:10.913Z,47264
2019-06-20T10:25:12.299Z,24480
2019-06-20T10:26:13.677Z,22080
2019-06-20T10:27:15.064Z,24000
2019-06-20T10:28:16.444Z,27552
2019-06-20T10:29:17.828Z,32512
2019-06-20T10:30:19.220Z,53600
2019-06-20T10:31:20.607Z,44928
2019-06-20T10:32:21.989Z,36160
2019-06-20T10:33:23.375Z,30976
2019-06-20T10:34:24.764Z,29632
2019-06-20T10:35:26.148Z,31488
2019-06-20T10:36:27.636Z,36832
2019-06-20T10:37:28.879Z,77568
2019-06-20T10:38:30.276Z,75232
2019-06-20T10:39:31.649Z,61536
2019-06-20T10:40:33.034Z,65440
2019-06-20T10:41:34.420Z,48704
2019-06-20T10:42:35.807Z,107008
2019-06-20T10:43:37.190Z,98816
2019-06-20T10:44:38.583Z,18048
2019-06-20T10:45:39.967Z,11332
2019-06-20T10:46:41.353Z,10120
2019-06-20T10:47:43.755Z,10520
2019-06-20T10:48:44.377Z,12952
2019-06-20T10:49:46.193Z,17152
2019-06-20T10:50:47.634Z,20736
2019-06-20T10:51:48.132Z,23072
2019-06-20T10:52:50.048Z,22400
2019-06-20T10:53:51.392Z,22560
2019-06-20T10:54:52.225Z,19904
2019-06-20T10:55:53.609Z,17312
2019-06-20T10:56:54.992Z,16576
2019-06-20T10:57:56.377Z,15904
2019-06-20T10:58:57.758Z,16832
2019-06-20T10:59:59.146Z,19200
2019-06-20T11:01:00.537Z,24192
2019-06-20T11:02:01.934Z,21600
2019-06-20T11:03:03.306Z,15680
2019-06-20T11:04:04.690Z,12384
2019-06-20T11:05:06.069Z,12412
2019-06-20T11:06:07.452Z,14168
2019-06-20T11:07:08.837Z,18432
2019-06-20T11:08:10.223Z,25952
2019-06-20T11:09:11.606Z,35008
2019-06-20T11:10:12.992Z,82624
2019-06-20T11:11:14.374Z,41024
2019-06-20T11:12:15.756Z,89408
2019-06-20T11:13:17.140Z,38368
2019-06-20T11:14:18.534Z,76384
2019-06-20T11:15:19.908Z,32736
2019-06-20T11:16:21.295Z,29376
2019-06-20T11:17:22.679Z,31424
2019-06-20T11:18:24.062Z,95328
2019-06-20T11:19:25.468Z,104128
2019-06-20T11:20:26.836Z,117792
2019-06-20T11:21:28.219Z,91712
2019-06-20T11:22:29.605Z,73984
2019-06-20T11:23:30.992Z,80416
2019-06-20T11:24:32.379Z,83360
2019-06-20T11:25:33.767Z,103712
2019-06-20T11:26:35.157Z,114784
2019-06-20T11:27:37.673Z,113952
2019-06-20T11:28:39.258Z,54848
2019-06-20T11:29:39.246Z,83296
2019-06-20T11:30:53.081Z,101856
2019-06-20T11:31:44.682Z,110336
2019-06-20T11:32:43.521Z,102624
2019-06-20T11:33:44.692Z,39296
2019-06-20T11:34:47.472Z,48096
2019-06-20T11:35:47.973Z,55552
2019-06-20T11:36:48.789Z,44544
2019-06-20T11:37:50.182Z,43808
2019-06-20T11:38:51.575Z,43488
2019-06-20T11:39:52.968Z,42688
2019-06-20T11:40:54.354Z,43648
2019-06-20T11:41:55.749Z,32320
2019-06-20T11:42:57.300Z,33600
2019-06-20T11:43:58.495Z,54752
2019-06-20T11:44:59.877Z,94208
2019-06-20T11:46:01.269Z,45120
2019-06-20T11:47:02.658Z,60320
2019-06-20T11:48:04.052Z,108480
2019-06-20T11:49:05.437Z,104480
2019-06-20T11:50:06.824Z,60928
2019-06-20T11:51:08.213Z,108160
2019-06-20T11:52:09.603Z,36768
2019-06-20T11:53:10.993Z,69600
2019-06-20T11:54:12.376Z,74208
2019-06-20T11:55:13.764Z,46720
2019-06-20T11:56:15.152Z,49312
2019-06-20T11:57:16.561Z,31072
2019-06-20T11:58:17.933Z,31456
2019-06-20T11:59:19.327Z,32704
2019-06-20T12:00:20.757Z,35968
2019-06-20T12:01:32.442Z,35744
2019-06-20T12:02:23.483Z,37920
2019-06-20T12:03:24.871Z,44992
2019-06-20T12:04:26.273Z,34240
2019-06-20T12:05:27.651Z,30688
2019-06-20T12:06:29.040Z,29760
2019-06-20T12:07:30.435Z,28704
2019-06-20T12:08:31.820Z,28000
2019-06-20T12:09:35.893Z,27232
2019-06-20T12:10:34.560Z,26400
2019-06-20T12:11:35.948Z,24480
2019-06-20T12:12:39.118Z,23680
2019-06-20T12:13:39.319Z,22944
2019-06-20T12:14:41.046Z,21408
2019-06-20T12:15:42.711Z,19520
2019-06-20T12:16:42.737Z,18560
2019-06-20T12:17:45.221Z,18432
2019-06-20T12:18:45.469Z,19008
2019-06-20T12:19:46.855Z,19904
2019-06-20T12:20:48.795Z,20192
2019-06-20T12:21:49.596Z,19040
2019-06-20T12:22:51.013Z,19296
2019-06-20T12:23:52.360Z,20704
2019-06-20T12:24:53.749Z,22944
2019-06-20T12:25:55.134Z,25536
2019-06-20T12:26:56.518Z,27744
2019-06-20T12:27:57.960Z,31584
2019-06-20T12:28:59.308Z,82048
2019-06-20T12:30:00.678Z,83168
2019-06-20T12:31:02.063Z,49920
2019-06-20T12:32:03.447Z,59008
2019-06-20T12:33:04.836Z,87072
2019-06-20T12:34:06.227Z,115008
2019-06-20T12:35:07.613Z,95648
2019-06-20T12:36:09.004Z,105504
2019-06-20T12:37:10.403Z,98016
2019-06-20T12:38:14.453Z,93152
2019-06-20T12:39:13.133Z,94496
2019-06-20T12:40:14.514Z,50848
2019-06-20T12:41:15.915Z,38720
2019-06-20T12:42:17.301Z,68832
2019-06-20T12:43:18.739Z,24672
2019-06-20T12:44:20.117Z,21888
2019-06-20T12:45:21.504Z,44544
2019-06-20T12:46:22.893Z,58784
2019-06-20T12:47:24.283Z,22464
2019-06-20T12:48:25.670Z,17216
2019-06-20T12:49:27.059Z,14660
2019-06-20T12:50:28.478Z,15080
2019-06-20T12:51:29.833Z,15436
2019-06-20T12:52:31.219Z,14656
2019-06-20T12:53:32.612Z,13808
2019-06-20T12:54:33.999Z,13524
2019-06-20T12:55:35.377Z,13080
2019-06-20T12:56:38.651Z,12944
2019-06-20T12:57:39.130Z,13092
2019-06-20T12:58:40.617Z,13392
2019-06-20T12:59:41.052Z,13696
2019-06-20T13:00:43.595Z,13464
2019-06-20T13:01:46.529Z,13332
2019-06-20T13:02:45.517Z,13444
2019-06-20T13:03:46.403Z,13600
2019-06-20T13:04:47.554Z,13592
2019-06-20T13:05:49.049Z,13524
2019-06-20T13:06:50.289Z,13528
2019-06-20T13:07:51.672Z,14016
2019-06-20T13:08:53.060Z,14900
2019-06-20T13:09:54.445Z,15968
2019-06-20T13:10:55.848Z,16896
2019-06-20T13:11:57.211Z,17408
2019-06-20T13:12:58.593Z,17792
2019-06-20T13:13:59.982Z,18464
2019-06-20T13:15:01.360Z,19360
2019-06-20T13:16:02.744Z,20224
2019-06-20T13:17:04.133Z,21120
2019-06-20T13:18:05.510Z,22240
2019-06-20T13:19:06.895Z,23840
2019-06-20T13:20:08.277Z,26208
2019-06-20T13:21:09.662Z,32352
2019-06-20T13:22:11.064Z,33504
2019-06-20T13:23:12.465Z,34656
2019-06-20T13:24:13.824Z,35840
2019-06-20T13:25:15.211Z,33632
2019-06-20T13:26:16.598Z,35744
2019-06-20T13:27:17.978Z,43104
2019-06-20T13:28:19.369Z,46112
2019-06-20T13:29:20.748Z,68064
2019-06-20T13:30:22.134Z,46304
2019-06-20T13:31:23.516Z,74688
2019-06-20T13:32:24.903Z,48416
2019-06-20T13:33:26.289Z,108320
2019-06-20T13:34:27.673Z,59456
2019-06-20T13:35:29.061Z,50688
2019-06-20T13:36:30.457Z,36672
2019-06-20T13:37:31.837Z,40864
2019-06-20T13:38:33.221Z,30144
2019-06-20T13:39:34.701Z,26208
2019-06-20T13:40:36.099Z,24160
2019-06-20T13:41:39.397Z,21696
2019-06-20T13:42:39.074Z,20128